KBCE/BCE METAR and TAF weather

Enter ICAO airport designator
Station Type Date Time Source
KBCE METAR 2022/01/19 19:53 UTC NOAA

KBCE 191953Z AUTO 02013KT 10SM CLR 02/M05 A3017 RMK AO2 SLP196 T00221050


Station Type Date Time Source
KBCE Decoded METAR 2022/01/19 19:53 UTC NOAA

BRYCE CANYON AIRPORT, UT, United States (KBCE) 37-42N 112-09W 2312M
Jan 19, 2022 - 02:53 PM EST / 2022.01.19 1953 UTC
Wind: from the NNE (020 degrees) at 15 MPH (13 KT):0
Visibility: 10 mile(s):0
Sky conditions: clear
Temperature: 36.0 F (2.2 C)
Dew Point: 23.0 F (-5.0 C)
Relative Humidity: 58%
Pressure (altimeter): 30.17 in. Hg (1021 hPa)
ob: KBCE 191953Z AUTO 02013KT 10SM CLR 02/M05 A3017 RMK AO2 SLP196 T00221050
cycle: 20

Station Type Date Time Source
KBCE TAF 2022/01/19 20:58 UTC NOAA

TAF
AMD KBCE 191958Z 1920/2018 36012G18KT P6SM FEW020 SCT120
FM201500 33008KT P6SM SKC

Example: see airport list